createdAt,value
2024-01-24T00:02:21.928Z,12.94
2024-01-24T00:04:48.833Z,12.93
2024-01-24T00:07:16.092Z,12.93
2024-01-24T00:09:45.638Z,12.93
2024-01-24T00:12:15.949Z,12.90
2024-01-24T00:14:48.704Z,12.87
2024-01-24T00:17:15.626Z,12.72
2024-01-24T00:19:42.616Z,12.78
2024-01-24T00:22:12.589Z,12.73
2024-01-24T00:24:39.463Z,12.78
2024-01-24T00:27:06.715Z,12.80
2024-01-24T00:29:33.630Z,12.80
2024-01-24T00:32:00.606Z,12.71
2024-01-24T00:34:27.490Z,12.65
2024-01-24T00:36:54.493Z,12.57
2024-01-24T00:39:21.703Z,12.57
2024-01-24T00:41:48.652Z,12.55
2024-01-24T00:44:16.019Z,12.54
2024-01-24T00:46:42.850Z,12.57
2024-01-24T00:49:11.124Z,12.59
2024-01-24T00:51:38.383Z,12.60
2024-01-24T00:54:15.175Z,12.63
2024-01-24T00:56:42.095Z,12.63
2024-01-24T00:59:09.593Z,12.64
2024-01-24T01:01:36.507Z,12.67
2024-01-24T01:04:05.069Z,12.65
2024-01-24T01:06:32.353Z,12.64
2024-01-24T01:09:01.947Z,12.63
2024-01-24T01:11:28.942Z,12.60
2024-01-24T01:13:55.897Z,12.58
2024-01-24T01:16:22.886Z,12.55
2024-01-24T01:18:49.884Z,12.54
2024-01-24T01:21:16.803Z,12.50
2024-01-24T01:23:43.744Z,12.43
2024-01-24T01:26:10.612Z,12.30
2024-01-24T01:28:37.431Z,12.29
2024-01-24T01:31:04.393Z,12.24
2024-01-24T01:33:31.426Z,12.30
2024-01-24T01:36:09.117Z,12.24
2024-01-24T01:38:44.678Z,12.24
2024-01-24T01:41:11.655Z,12.23
2024-01-24T01:43:38.754Z,12.05
2024-01-24T01:46:11.630Z,12.03
2024-01-24T01:48:39.362Z,12.10
2024-01-24T01:51:07.077Z,12.04
2024-01-24T01:53:39.942Z,12.06
2024-01-24T01:56:13.442Z,12.17
2024-01-24T01:58:42.035Z,12.25
2024-01-24T02:01:09.843Z,12.25
2024-01-24T02:03:45.174Z,12.20
2024-01-24T02:06:12.401Z,12.27
2024-01-24T02:08:41.040Z,12.34
2024-01-24T02:11:08.268Z,12.40
2024-01-24T02:13:35.188Z,12.38
2024-01-24T02:16:04.845Z,12.38
2024-01-24T02:18:32.021Z,12.44
2024-01-24T02:20:59.252Z,12.45
2024-01-24T02:23:27.809Z,12.43
2024-01-24T02:25:55.033Z,12.47
2024-01-24T02:28:22.073Z,12.44
2024-01-24T02:30:49.167Z,12.47
2024-01-24T02:33:16.417Z,12.49
2024-01-24T02:35:43.620Z,12.50
2024-01-24T02:38:10.576Z,12.52
2024-01-24T02:40:37.685Z,12.52
2024-01-24T02:43:04.949Z,12.51
2024-01-24T02:45:32.012Z,12.52
2024-01-24T02:47:58.959Z,12.43
2024-01-24T02:50:25.888Z,12.41
2024-01-24T02:52:52.808Z,12.45
2024-01-24T02:55:19.908Z,12.45
2024-01-24T02:57:46.890Z,12.44
2024-01-24T03:00:14.540Z,12.45
2024-01-24T03:02:41.672Z,12.46
2024-01-24T03:05:11.668Z,12.48
2024-01-24T03:07:39.422Z,12.50
2024-01-24T03:10:07.228Z,12.46
2024-01-24T03:12:34.344Z,12.41
2024-01-24T03:15:01.284Z,12.46
2024-01-24T03:17:28.284Z,12.40
2024-01-24T03:19:56.129Z,12.44
2024-01-24T03:22:26.377Z,12.38
2024-01-24T03:24:53.956Z,12.40
2024-01-24T03:27:20.993Z,12.38
2024-01-24T03:29:47.959Z,12.35
2024-01-24T03:32:14.789Z,12.35
2024-01-24T03:34:41.846Z,12.34
2024-01-24T03:37:08.739Z,12.29
2024-01-24T03:39:37.462Z,12.26
2024-01-24T03:42:05.032Z,12.20
2024-01-24T03:44:31.998Z,12.24
2024-01-24T03:46:59.153Z,12.13
2024-01-24T03:49:26.205Z,12.16
2024-01-24T03:51:53.331Z,12.08
2024-01-24T03:54:21.128Z,12.08
2024-01-24T03:56:48.235Z,12.04
2024-01-24T03:59:17.116Z,11.96
2024-01-24T04:01:44.109Z,11.87
2024-01-24T04:04:11.143Z,11.87
2024-01-24T04:06:38.204Z,11.73
2024-01-24T04:09:05.259Z,11.63
2024-01-24T04:11:32.185Z,11.48
2024-01-24T04:13:59.037Z,11.44
2024-01-24T04:16:25.929Z,11.50
2024-01-24T04:18:52.976Z,11.33
2024-01-24T04:21:19.968Z,11.04
2024-01-24T04:23:46.908Z,11.16
2024-01-24T04:26:13.856Z,11.08
2024-01-24T04:28:40.727Z,11.00
2024-01-24T04:31:07.670Z,11.00
2024-01-24T04:33:34.706Z,11.05
2024-01-24T04:36:02.567Z,11.16
2024-01-24T04:38:29.468Z,11.12
2024-01-24T04:40:57.602Z,11.11
2024-01-24T04:43:24.555Z,11.06
2024-01-24T04:45:52.026Z,11.05
2024-01-24T04:48:19.143Z,11.04
2024-01-24T04:50:46.172Z,11.09
2024-01-24T04:53:13.098Z,10.95
2024-01-24T04:55:39.940Z,11.05
2024-01-24T04:58:06.872Z,10.95
2024-01-24T05:00:33.854Z,11.07
2024-01-24T05:03:01.473Z,11.00
2024-01-24T05:05:28.610Z,11.05
2024-01-24T05:07:55.907Z,11.08
2024-01-24T05:10:22.868Z,11.10
2024-01-24T05:12:49.876Z,11.08
2024-01-24T05:15:16.812Z,11.14
2024-01-24T05:17:43.864Z,11.19
2024-01-24T05:20:12.291Z,11.21
2024-01-24T05:22:39.330Z,11.19
2024-01-24T05:25:06.645Z,11.20
2024-01-24T05:27:33.490Z,11.15
2024-01-24T05:30:08.975Z,11.10
2024-01-24T05:32:42.999Z,11.08
2024-01-24T05:35:10.044Z,11.07
2024-01-24T05:37:37.068Z,11.03
2024-01-24T05:40:05.202Z,11.05
2024-01-24T05:42:32.295Z,10.96
2024-01-24T05:44:59.261Z,11.05
2024-01-24T05:47:26.262Z,11.03
2024-01-24T05:49:53.163Z,11.10
2024-01-24T05:52:20.147Z,11.13
2024-01-24T05:54:47.066Z,11.12
2024-01-24T05:57:13.995Z,11.12
2024-01-24T05:59:40.937Z,11.15
2024-01-24T06:02:07.954Z,11.14
2024-01-24T06:04:35.019Z,11.11
2024-01-24T06:07:02.933Z,11.11
2024-01-24T06:09:29.967Z,11.06
2024-01-24T06:11:57.150Z,10.99
2024-01-24T06:14:24.099Z,10.88
2024-01-24T06:16:51.988Z,10.88
2024-01-24T06:19:21.587Z,10.83
2024-01-24T06:21:48.540Z,10.72
2024-01-24T06:24:15.480Z,10.64
2024-01-24T06:26:42.447Z,10.71
2024-01-24T06:29:09.575Z,10.86
2024-01-24T06:31:36.525Z,10.96
2024-01-24T06:34:03.756Z,10.99
2024-01-24T06:36:30.763Z,11.04
2024-01-24T06:38:57.700Z,11.03
2024-01-24T06:41:24.631Z,11.06
2024-01-24T06:43:52.108Z,10.99
2024-01-24T06:46:19.235Z,10.92
2024-01-24T06:48:46.213Z,10.99
2024-01-24T06:51:14.545Z,11.01
2024-01-24T06:53:41.537Z,11.07
2024-01-24T06:56:09.862Z,11.00
2024-01-24T06:58:38.863Z,10.87
2024-01-24T07:01:06.051Z,10.75
2024-01-24T07:03:33.221Z,10.79
2024-01-24T07:06:00.400Z,10.80
2024-01-24T07:08:27.307Z,10.69
2024-01-24T07:10:54.302Z,10.60
2024-01-24T07:13:21.179Z,10.61
2024-01-24T07:15:48.315Z,10.50
2024-01-24T07:18:15.330Z,10.32
2024-01-24T07:20:42.459Z,10.41
2024-01-24T07:23:09.634Z,10.42
2024-01-24T07:25:36.516Z,10.53
2024-01-24T07:28:03.503Z,10.70
2024-01-24T07:30:30.519Z,10.78
2024-01-24T07:32:57.480Z,10.94
2024-01-24T07:35:24.467Z,11.04
2024-01-24T07:37:51.624Z,10.92
2024-01-24T07:40:18.538Z,11.01
2024-01-24T07:42:45.471Z,11.10
2024-01-24T07:45:12.482Z,11.18
2024-01-24T07:47:40.325Z,11.24
2024-01-24T07:50:08.371Z,11.24
2024-01-24T07:52:40.937Z,11.31
2024-01-24T07:55:11.112Z,11.36
2024-01-24T07:57:38.954Z,11.37
2024-01-24T08:00:07.465Z,11.52
2024-01-24T08:02:35.120Z,11.62
2024-01-24T08:05:02.284Z,11.65
2024-01-24T08:07:31.577Z,11.63
2024-01-24T08:09:58.626Z,11.62
2024-01-24T08:12:25.697Z,11.58
2024-01-24T08:14:52.774Z,11.53
2024-01-24T08:17:21.055Z,11.54
2024-01-24T08:19:49.990Z,11.57
2024-01-24T08:22:17.087Z,11.53
2024-01-24T08:24:45.588Z,11.69
2024-01-24T08:27:12.843Z,11.90
2024-01-24T08:29:39.864Z,11.89
2024-01-24T08:32:07.429Z,11.96
2024-01-24T08:34:37.173Z,12.07
2024-01-24T08:37:05.264Z,12.23
2024-01-24T08:39:33.615Z,12.36
2024-01-24T08:42:01.657Z,12.48
2024-01-24T08:44:28.694Z,12.59
2024-01-24T08:46:55.714Z,12.71
2024-01-24T08:49:22.649Z,12.74
2024-01-24T08:51:49.726Z,12.87
2024-01-24T08:54:17.482Z,12.88
2024-01-24T08:56:44.758Z,13.00
2024-01-24T08:59:12.444Z,12.94
2024-01-24T09:01:39.554Z,13.05
2024-01-24T09:04:06.798Z,13.14
2024-01-24T09:06:34.016Z,13.29
2024-01-24T09:09:01.117Z,13.51
2024-01-24T09:11:34.419Z,13.68
2024-01-24T09:14:05.406Z,13.82
2024-01-24T09:16:32.739Z,13.94
2024-01-24T09:18:59.930Z,14.06
2024-01-24T09:21:27.162Z,14.16
2024-01-24T09:23:54.328Z,14.20
2024-01-24T09:26:21.451Z,14.27
2024-01-24T09:28:48.398Z,14.37
2024-01-24T09:31:16.016Z,14.35
2024-01-24T09:33:43.203Z,14.35
2024-01-24T09:36:11.119Z,14.28
2024-01-24T09:38:38.014Z,14.36
2024-01-24T09:41:14.963Z,14.39
2024-01-24T09:43:42.530Z,14.51
2024-01-24T09:46:13.696Z,14.64
2024-01-24T09:48:42.884Z,14.79
2024-01-24T09:51:10.709Z,14.82
2024-01-24T09:53:39.963Z,14.88
2024-01-24T09:56:08.917Z,14.96
2024-01-24T09:58:35.781Z,15.03
2024-01-24T10:01:05.779Z,14.98
2024-01-24T10:03:36.768Z,15.06
2024-01-24T10:06:09.145Z,15.21
2024-01-24T10:08:36.118Z,15.25
2024-01-24T10:11:03.075Z,15.24
2024-01-24T10:13:31.626Z,15.37
2024-01-24T10:16:01.008Z,15.43
2024-01-24T10:18:28.254Z,15.63
2024-01-24T10:20:55.318Z,15.55
2024-01-24T10:23:22.790Z,15.70
2024-01-24T10:25:49.863Z,15.79
2024-01-24T10:28:18.331Z,15.72
2024-01-24T10:30:47.854Z,15.92
2024-01-24T10:33:16.597Z,16.10
2024-01-24T10:35:45.102Z,16.21
2024-01-24T10:38:13.166Z,16.22
2024-01-24T10:40:41.614Z,16.44
2024-01-24T10:43:13.967Z,16.66
2024-01-24T10:45:49.641Z,16.89
2024-01-24T10:48:18.390Z,17.08
2024-01-24T10:50:46.231Z,17.29
2024-01-24T10:53:14.704Z,17.40
2024-01-24T10:55:42.671Z,17.51
2024-01-24T10:58:13.276Z,17.58
2024-01-24T11:00:42.507Z,17.52
2024-01-24T11:03:09.628Z,17.51
2024-01-24T11:05:48.250Z,17.53
2024-01-24T11:08:36.341Z,17.59
2024-01-24T11:11:14.649Z,17.69
2024-01-24T11:13:43.853Z,17.59
2024-01-24T11:16:26.521Z,17.52
2024-01-24T11:19:00.588Z,17.51
2024-01-24T11:21:33.438Z,17.40
2024-01-24T11:24:00.812Z,17.47
2024-01-24T11:26:27.727Z,17.60
2024-01-24T11:29:16.834Z,17.70
2024-01-24T11:31:45.055Z,17.75
2024-01-24T11:34:16.707Z,17.84
2024-01-24T11:36:53.508Z,17.89
2024-01-24T11:39:29.820Z,17.88
2024-01-24T11:42:30.087Z,17.78
2024-01-24T11:45:17.437Z,17.95
2024-01-24T11:47:45.540Z,17.86
2024-01-24T11:50:12.954Z,17.99
2024-01-24T11:52:41.002Z,18.04
2024-01-24T11:55:08.466Z,18.16
2024-01-24T11:57:35.681Z,18.21
2024-01-24T12:00:03.413Z,18.26
2024-01-24T12:02:32.098Z,18.28
2024-01-24T12:04:59.253Z,18.33
2024-01-24T12:07:26.589Z,18.42
2024-01-24T12:09:54.426Z,18.43
2024-01-24T12:12:21.732Z,18.44
2024-01-24T12:14:49.480Z,18.34
2024-01-24T12:17:16.882Z,18.42
2024-01-24T12:19:47.000Z,18.26
2024-01-24T12:22:14.853Z,18.32
2024-01-24T12:24:42.067Z,18.39
2024-01-24T12:27:09.762Z,18.32
2024-01-24T12:29:37.506Z,18.36
2024-01-24T12:32:06.383Z,18.42
2024-01-24T12:34:34.099Z,18.45
2024-01-24T12:37:01.872Z,18.28
2024-01-24T12:39:31.516Z,18.30
2024-01-24T12:41:59.316Z,18.23
2024-01-24T12:44:26.760Z,18.44
2024-01-24T12:47:00.814Z,18.45
2024-01-24T12:49:28.655Z,18.40
2024-01-24T12:51:56.374Z,18.35
2024-01-24T12:54:23.430Z,18.27
2024-01-24T12:56:51.783Z,18.31
2024-01-24T12:59:19.200Z,18.26
2024-01-24T13:01:46.210Z,18.14
2024-01-24T13:04:13.255Z,18.06
2024-01-24T13:06:41.650Z,18.12
2024-01-24T13:09:09.578Z,18.13
2024-01-24T13:11:36.923Z,18.06
2024-01-24T13:14:03.955Z,18.13
2024-01-24T13:16:30.982Z,18.07
2024-01-24T13:18:58.279Z,18.22
2024-01-24T13:21:25.852Z,18.01
2024-01-24T13:23:52.821Z,17.93
2024-01-24T13:26:19.808Z,17.82
2024-01-24T13:28:46.779Z,17.93
2024-01-24T13:31:13.826Z,17.97
2024-01-24T13:33:42.254Z,17.76
2024-01-24T13:36:10.643Z,17.84
2024-01-24T13:38:37.874Z,17.90
2024-01-24T13:41:05.037Z,17.98
2024-01-24T13:43:32.413Z,18.06
2024-01-24T13:45:59.431Z,18.15
2024-01-24T13:48:27.108Z,18.11
2024-01-24T13:50:56.228Z,17.99
2024-01-24T13:53:23.307Z,17.99
2024-01-24T13:55:50.327Z,18.14
2024-01-24T13:58:17.973Z,18.11
2024-01-24T14:00:45.113Z,18.03
2024-01-24T14:03:12.267Z,17.88
2024-01-24T14:05:40.228Z,17.93
2024-01-24T14:08:08.098Z,17.93
2024-01-24T14:10:35.504Z,17.92
2024-01-24T14:13:02.646Z,17.81
2024-01-24T14:15:34.716Z,17.60
2024-01-24T14:18:04.527Z,17.36
2024-01-24T14:20:31.762Z,17.36
2024-01-24T14:22:58.685Z,17.35
2024-01-24T14:25:25.755Z,17.32
2024-01-24T14:27:52.875Z,17.32
2024-01-24T14:30:20.096Z,17.36
2024-01-24T14:32:47.143Z,17.41
2024-01-24T14:35:18.194Z,17.53
2024-01-24T14:37:45.495Z,17.51
2024-01-24T14:40:15.775Z,17.47
2024-01-24T14:42:43.435Z,17.41
2024-01-24T14:45:10.807Z,17.45
2024-01-24T14:47:38.188Z,17.44
2024-01-24T14:50:07.052Z,17.37
2024-01-24T14:52:34.550Z,17.39
2024-01-24T14:55:04.803Z,17.33
2024-01-24T14:57:33.472Z,17.24
2024-01-24T15:00:01.435Z,17.28
2024-01-24T15:02:28.602Z,17.17
2024-01-24T15:04:55.958Z,17.18
2024-01-24T15:07:23.931Z,17.07
2024-01-24T15:09:51.079Z,17.08
2024-01-24T15:12:17.955Z,17.17
2024-01-24T15:14:44.849Z,17.17
2024-01-24T15:17:11.716Z,17.16
2024-01-24T15:19:42.196Z,17.17
2024-01-24T15:22:17.313Z,17.17
2024-01-24T15:24:45.238Z,17.08
2024-01-24T15:27:12.473Z,17.08
2024-01-24T15:29:40.087Z,17.09
2024-01-24T15:32:07.102Z,17.12
2024-01-24T15:34:34.174Z,17.12
2024-01-24T15:37:01.288Z,17.08
2024-01-24T15:39:28.212Z,16.99
2024-01-24T15:42:00.887Z,16.99
2024-01-24T15:44:28.814Z,16.96
2024-01-24T15:46:58.530Z,16.93
2024-01-24T15:49:25.565Z,16.89
2024-01-24T15:51:52.620Z,16.91
2024-01-24T15:54:19.725Z,16.89
2024-01-24T15:56:47.489Z,16.83
2024-01-24T15:59:14.498Z,16.89
2024-01-24T16:01:48.772Z,16.89
2024-01-24T16:04:18.913Z,16.81
2024-01-24T16:06:46.306Z,16.76
2024-01-24T16:09:13.401Z,16.79
2024-01-24T16:11:40.569Z,16.80
2024-01-24T16:14:08.159Z,16.79
2024-01-24T16:16:36.068Z,16.78
2024-01-24T16:19:03.015Z,16.78
2024-01-24T16:21:29.924Z,16.75
2024-01-24T16:23:56.811Z,16.78
2024-01-24T16:26:23.677Z,16.73
2024-01-24T16:28:50.564Z,16.72
2024-01-24T16:31:18.052Z,16.66
2024-01-24T16:33:45.013Z,16.68
2024-01-24T16:36:12.565Z,16.66
2024-01-24T16:38:39.519Z,16.64
2024-01-24T16:41:07.628Z,16.56
2024-01-24T16:43:37.315Z,16.45
2024-01-24T16:46:06.282Z,16.40
2024-01-24T16:48:33.420Z,16.38
2024-01-24T16:51:00.701Z,16.29
2024-01-24T16:53:28.026Z,16.23
2024-01-24T16:55:54.940Z,16.26
2024-01-24T16:58:21.792Z,16.25
2024-01-24T17:00:48.779Z,16.24
2024-01-24T17:03:15.758Z,16.24
2024-01-24T17:05:42.769Z,16.24
2024-01-24T17:08:09.657Z,16.20
2024-01-24T17:10:36.519Z,16.11
2024-01-24T17:13:03.693Z,16.10
2024-01-24T17:15:31.207Z,15.99
2024-01-24T17:17:59.277Z,15.99
2024-01-24T17:20:26.268Z,16.00
2024-01-24T17:22:53.205Z,15.97
2024-01-24T17:25:21.757Z,15.94
2024-01-24T17:27:48.709Z,15.96
2024-01-24T17:30:17.334Z,15.96
2024-01-24T17:32:44.346Z,15.96
2024-01-24T17:35:11.338Z,15.96
2024-01-24T17:37:38.354Z,15.94
2024-01-24T17:40:06.381Z,15.79
2024-01-24T17:42:33.832Z,15.66
2024-01-24T17:45:00.883Z,15.60
2024-01-24T17:47:27.912Z,15.49
2024-01-24T17:49:54.965Z,15.32
2024-01-24T17:52:21.965Z,15.25
2024-01-24T17:54:49.090Z,15.23
2024-01-24T17:57:17.083Z,15.13
2024-01-24T17:59:44.132Z,15.23
2024-01-24T18:02:11.160Z,15.22
2024-01-24T18:04:38.089Z,15.22
2024-01-24T18:07:05.233Z,15.27
2024-01-24T18:09:32.823Z,15.30
2024-01-24T18:11:59.866Z,15.36
2024-01-24T18:14:26.804Z,15.40
2024-01-24T18:16:53.836Z,15.41
2024-01-24T18:19:20.826Z,15.43
2024-01-24T18:21:48.119Z,15.45
2024-01-24T18:24:15.015Z,15.45
2024-01-24T18:26:42.287Z,15.44
2024-01-24T18:29:09.237Z,15.43
2024-01-24T18:31:36.275Z,15.42
2024-01-24T18:34:04.576Z,15.40
2024-01-24T18:36:31.621Z,15.42
2024-01-24T18:38:58.525Z,15.41
2024-01-24T18:41:25.410Z,15.37
2024-01-24T18:43:54.171Z,15.37
2024-01-24T18:46:22.050Z,15.37
2024-01-24T18:48:49.558Z,15.38
2024-01-24T18:51:17.565Z,15.34
2024-01-24T18:53:45.402Z,15.26
2024-01-24T18:56:15.196Z,15.19
2024-01-24T18:58:42.263Z,15.24
2024-01-24T19:01:11.562Z,15.26
2024-01-24T19:03:39.064Z,15.21
2024-01-24T19:06:06.559Z,15.13
2024-01-24T19:08:35.486Z,15.12
2024-01-24T19:11:05.442Z,15.13
2024-01-24T19:13:34.709Z,15.15
2024-01-24T19:16:01.962Z,15.10
2024-01-24T19:18:30.225Z,14.99
2024-01-24T19:20:57.462Z,15.03
2024-01-24T19:23:24.941Z,15.01
2024-01-24T19:25:51.867Z,14.98
2024-01-24T19:28:18.931Z,14.91
2024-01-24T19:30:46.126Z,14.94
2024-01-24T19:33:13.298Z,14.97
2024-01-24T19:35:41.798Z,14.97
2024-01-24T19:38:08.660Z,14.94
2024-01-24T19:40:35.507Z,14.95
2024-01-24T19:43:02.527Z,14.95
2024-01-24T19:45:29.869Z,14.89
2024-01-24T19:47:57.167Z,14.79
2024-01-24T19:50:24.750Z,14.74
2024-01-24T19:52:52.388Z,14.78
2024-01-24T19:55:21.390Z,14.71
2024-01-24T19:57:48.317Z,14.67
2024-01-24T20:00:15.693Z,14.61
2024-01-24T20:02:42.752Z,14.56
2024-01-24T20:05:09.965Z,14.49
2024-01-24T20:07:37.004Z,14.51
2024-01-24T20:10:04.389Z,14.48
2024-01-24T20:12:31.461Z,14.47
2024-01-24T20:14:58.341Z,14.47
2024-01-24T20:17:26.011Z,14.48
2024-01-24T20:19:53.612Z,14.48
2024-01-24T20:22:20.559Z,14.48
2024-01-24T20:24:47.638Z,14.40
2024-01-24T20:27:14.701Z,14.36
2024-01-24T20:29:41.607Z,14.30
2024-01-24T20:32:08.636Z,14.20
2024-01-24T20:34:35.733Z,14.16
2024-01-24T20:37:03.231Z,14.07
2024-01-24T20:39:30.533Z,14.13
2024-01-24T20:41:58.210Z,14.14
2024-01-24T20:44:25.159Z,14.19
2024-01-24T20:46:52.040Z,14.26
2024-01-24T20:49:19.037Z,14.27
2024-01-24T20:51:48.977Z,14.27
2024-01-24T20:54:17.808Z,14.26
2024-01-24T20:56:45.297Z,14.28
2024-01-24T20:59:12.232Z,14.23
2024-01-24T21:01:39.372Z,14.21
2024-01-24T21:04:06.632Z,14.24
2024-01-24T21:06:33.840Z,14.26
2024-01-24T21:09:00.756Z,14.21
2024-01-24T21:11:27.714Z,14.18
2024-01-24T21:13:54.606Z,14.16
2024-01-24T21:16:21.492Z,14.13
2024-01-24T21:18:48.497Z,14.02
2024-01-24T21:21:16.110Z,14.10
2024-01-24T21:23:43.069Z,14.08
2024-01-24T21:26:10.002Z,14.10
2024-01-24T21:28:36.898Z,14.13
2024-01-24T21:31:04.005Z,14.07
2024-01-24T21:33:33.005Z,14.09
2024-01-24T21:36:00.562Z,14.12
2024-01-24T21:38:27.540Z,14.07
2024-01-24T21:40:54.553Z,14.10
2024-01-24T21:43:21.698Z,14.09
2024-01-24T21:45:48.608Z,14.06
2024-01-24T21:48:16.662Z,14.02
2024-01-24T21:50:44.665Z,13.92
2024-01-24T21:53:11.598Z,13.87
2024-01-24T21:55:38.631Z,13.90
2024-01-24T21:58:05.726Z,13.87
2024-01-24T22:00:32.891Z,13.86
2024-01-24T22:02:59.831Z,13.70
2024-01-24T22:05:26.932Z,13.76
2024-01-24T22:07:53.944Z,13.73
2024-01-24T22:10:20.974Z,13.68
2024-01-24T22:12:49.050Z,13.67
2024-01-24T22:15:17.508Z,13.67
2024-01-24T22:17:44.675Z,13.50
2024-01-24T22:20:12.024Z,13.54
2024-01-24T22:22:39.055Z,13.53
2024-01-24T22:25:08.443Z,13.48
2024-01-24T22:27:35.432Z,13.53
2024-01-24T22:30:06.020Z,13.55
2024-01-24T22:32:33.840Z,13.59
2024-01-24T22:35:06.215Z,13.54
2024-01-24T22:37:33.448Z,13.57
2024-01-24T22:40:00.536Z,13.56
2024-01-24T22:42:27.895Z,13.50
2024-01-24T22:44:54.825Z,13.51
2024-01-24T22:47:22.384Z,13.50
2024-01-24T22:49:49.512Z,13.47
2024-01-24T22:52:18.378Z,13.46
2024-01-24T22:54:45.414Z,13.45
2024-01-24T22:57:13.028Z,13.45
2024-01-24T22:59:39.916Z,13.41
2024-01-24T23:02:06.977Z,13.38
2024-01-24T23:04:34.243Z,13.35
2024-01-24T23:07:01.462Z,13.38
2024-01-24T23:09:28.622Z,13.27
2024-01-24T23:11:55.738Z,13.27
2024-01-24T23:14:22.649Z,13.19
2024-01-24T23:16:49.607Z,13.21
2024-01-24T23:19:17.034Z,13.23
2024-01-24T23:21:44.065Z,13.26
2024-01-24T23:24:11.192Z,13.23
2024-01-24T23:26:38.512Z,13.22
2024-01-24T23:29:05.900Z,13.25
2024-01-24T23:31:32.802Z,13.17
2024-01-24T23:34:00.035Z,13.11
2024-01-24T23:36:27.184Z,13.07
2024-01-24T23:38:54.514Z,13.09
2024-01-24T23:41:21.672Z,13.08
2024-01-24T23:43:48.566Z,13.09
2024-01-24T23:46:15.658Z,13.09
2024-01-24T23:48:43.152Z,13.08
2024-01-24T23:51:10.490Z,13.07
2024-01-24T23:53:37.591Z,13.11
2024-01-24T23:56:05.041Z,13.07
2024-01-24T23:58:32.221Z,13.09
